createdAt,value
2024-04-19T00:01:28.968Z,100240.91
2024-04-19T00:04:00.416Z,100231.73
2024-04-19T00:06:31.856Z,100227.25
2024-04-19T00:09:02.964Z,100223.80
2024-04-19T00:11:34.108Z,100219.09
2024-04-19T00:14:05.387Z,100217.02
2024-04-19T00:16:36.572Z,100212.77
2024-04-19T00:19:07.778Z,100213.81
2024-04-19T00:21:38.968Z,100212.53
2024-04-19T00:24:10.327Z,100203.80
2024-04-19T00:26:41.500Z,100202.00
2024-04-19T00:29:12.612Z,100201.64
2024-04-19T00:31:43.727Z,100198.52
2024-04-19T00:34:14.931Z,100196.51
2024-04-19T00:36:46.041Z,100195.24
2024-04-19T00:39:17.155Z,100194.80
2024-04-19T00:41:48.314Z,100195.34
2024-04-19T00:44:19.518Z,100195.31
2024-04-19T00:46:50.650Z,100195.34
2024-04-19T00:49:36.827Z,100193.38
2024-04-19T00:52:09.321Z,100195.48
2024-04-19T00:54:42.310Z,100194.70
2024-04-19T00:57:14.020Z,100192.97
2024-04-19T00:59:45.879Z,100190.53
2024-04-19T01:02:17.254Z,100188.89
2024-04-19T01:04:48.462Z,100183.20
2024-04-19T01:07:19.708Z,100187.12
2024-04-19T01:09:51.290Z,100184.77
2024-04-19T01:12:22.766Z,100179.67
2024-04-19T01:14:53.991Z,100182.06
2024-04-19T01:17:25.207Z,100177.17
2024-04-19T01:19:56.348Z,100175.93
2024-04-19T01:22:40.247Z,100176.53
2024-04-19T01:25:17.478Z,100180.77
2024-04-19T01:27:48.856Z,100176.25
2024-04-19T01:30:20.014Z,100172.42
2024-04-19T01:32:51.394Z,100171.48
2024-04-19T01:35:22.638Z,100172.56
2024-04-19T01:37:53.946Z,100170.15
2024-04-19T01:40:25.078Z,100166.46
2024-04-19T01:42:56.428Z,100163.40
2024-04-19T01:45:27.960Z,100160.77
2024-04-19T01:48:01.046Z,100157.86
2024-04-19T01:50:32.279Z,100153.75
2024-04-19T01:53:03.727Z,100156.96
2024-04-19T01:55:35.070Z,100153.38
2024-04-19T01:58:06.512Z,100150.79
2024-04-19T02:00:37.938Z,100149.67
2024-04-19T02:03:09.059Z,100141.16
2024-04-19T02:05:40.286Z,100136.98
2024-04-19T02:08:11.455Z,100139.38
2024-04-19T02:10:42.543Z,100139.48
2024-04-19T02:13:13.759Z,100140.38
2024-04-19T02:15:45.201Z,100137.88
2024-04-19T02:18:16.383Z,100141.59
2024-04-19T02:20:47.513Z,100137.84
2024-04-19T02:23:39.387Z,100132.66
2024-04-19T02:26:10.951Z,100131.16
2024-04-19T02:29:00.696Z,100124.17
2024-04-19T02:31:31.940Z,100121.06
2024-04-19T02:34:03.668Z,100122.34
2024-04-19T02:36:34.940Z,100120.80
2024-04-19T02:39:06.371Z,100114.23
2024-04-19T02:41:37.471Z,100109.75
2024-04-19T02:44:09.825Z,100105.80
2024-04-19T02:46:41.376Z,100109.23
2024-04-19T02:49:12.527Z,100102.79
2024-04-19T02:51:43.752Z,100103.14
2024-04-19T02:54:14.853Z,100099.71
2024-04-19T02:56:45.960Z,100092.56
2024-04-19T02:59:17.090Z,100084.61
2024-04-19T03:01:48.166Z,100083.65
2024-04-19T03:04:19.347Z,100082.95
2024-04-19T03:06:50.578Z,100076.06
2024-04-19T03:09:21.830Z,100076.38
2024-04-19T03:11:56.154Z,100072.49
2024-04-19T03:14:27.501Z,100069.38
2024-04-19T03:16:59.357Z,100068.09
2024-04-19T03:19:48.884Z,100066.77
2024-04-19T03:22:20.166Z,100067.40
2024-04-19T03:24:51.275Z,100062.01
2024-04-19T03:27:22.476Z,100060.13
2024-04-19T03:29:57.349Z,100061.92
2024-04-19T03:32:28.701Z,100058.88
2024-04-19T03:35:00.610Z,100056.77
2024-04-19T03:37:31.963Z,100053.26
2024-04-19T03:40:03.507Z,100055.27
2024-04-19T03:42:37.601Z,100052.17
2024-04-19T03:45:26.591Z,100042.41
2024-04-19T03:47:57.839Z,100044.19
2024-04-19T03:50:29.140Z,100038.48
2024-04-19T03:53:01.317Z,100035.39
2024-04-19T03:55:32.531Z,100035.66
2024-04-19T03:58:03.671Z,100041.48
2024-04-19T04:00:37.550Z,100037.49
2024-04-19T04:03:09.214Z,100034.64
2024-04-19T04:05:50.338Z,100036.90
2024-04-19T04:08:21.421Z,100032.06
2024-04-19T04:10:52.585Z,100037.98
2024-04-19T04:13:23.725Z,100036.30
2024-04-19T04:15:55.000Z,100037.83
2024-04-19T04:18:26.423Z,100038.30
2024-04-19T04:20:57.659Z,100039.53
2024-04-19T04:23:29.012Z,100035.55
2024-04-19T04:26:00.485Z,100029.44
2024-04-19T04:28:31.938Z,100029.88
2024-04-19T04:31:03.150Z,100027.39
2024-04-19T04:33:34.426Z,100027.88
2024-04-19T04:36:06.236Z,100024.73
2024-04-19T04:38:37.360Z,100024.81
2024-04-19T04:41:08.600Z,100029.96
2024-04-19T04:43:41.077Z,100026.07
2024-04-19T04:46:12.869Z,100028.16
2024-04-19T04:48:44.554Z,100025.83
2024-04-19T04:51:15.992Z,100024.30
2024-04-19T04:53:47.394Z,100025.17
2024-04-19T04:56:18.681Z,100019.19
2024-04-19T04:58:50.183Z,100022.61
2024-04-19T05:01:21.778Z,100022.77
2024-04-19T05:03:53.511Z,100020.63
2024-04-19T05:06:24.911Z,100015.73
2024-04-19T05:08:56.160Z,100013.65
2024-04-19T05:11:27.736Z,100014.81
2024-04-19T05:13:59.078Z,100008.23
2024-04-19T05:16:31.053Z,100007.81
2024-04-19T05:19:02.493Z,100003.97
2024-04-19T05:21:34.149Z,100002.67
2024-04-19T05:24:08.474Z,100005.38
2024-04-19T05:26:40.071Z,99998.80
2024-04-19T05:29:14.030Z,99999.30
2024-04-19T05:31:45.310Z,99999.30
2024-04-19T05:34:16.559Z,99992.43
2024-04-19T05:36:48.130Z,99994.10
2024-04-19T05:39:19.633Z,99994.02
2024-04-19T05:41:51.101Z,99996.40
2024-04-19T05:44:22.629Z,99990.71
2024-04-19T05:46:54.449Z,99994.66
2024-04-19T05:49:26.827Z,99992.98
2024-04-19T05:51:58.096Z,99976.14
2024-04-19T05:54:29.287Z,99986.94
2024-04-19T05:57:01.606Z,99981.87
2024-04-19T05:59:32.787Z,99986.93
2024-04-19T06:02:04.008Z,99980.45
2024-04-19T06:04:40.949Z,99976.38
2024-04-19T06:07:12.318Z,99970.55
2024-04-19T06:09:43.612Z,99970.99
2024-04-19T06:12:14.871Z,99961.92
2024-04-19T06:14:46.053Z,99961.61
2024-04-19T06:17:17.292Z,99952.77
2024-04-19T06:19:48.669Z,99949.21
2024-04-19T06:22:19.817Z,99950.52
2024-04-19T06:24:51.151Z,99944.50
2024-04-19T06:27:22.556Z,99938.10
2024-04-19T06:29:53.840Z,99938.92
2024-04-19T06:32:24.957Z,99930.16
2024-04-19T06:34:56.046Z,99932.27
2024-04-19T06:37:27.400Z,99927.48
2024-04-19T06:40:05.481Z,99930.34
2024-04-19T06:42:39.166Z,99924.44
2024-04-19T06:45:10.739Z,99925.31
2024-04-19T06:47:44.207Z,99922.81
2024-04-19T06:50:15.760Z,99913.66
2024-04-19T06:52:46.897Z,99912.97
2024-04-19T06:55:18.204Z,99913.74
2024-04-19T06:57:50.012Z,99909.02
2024-04-19T07:00:33.299Z,99903.17
2024-04-19T07:03:12.740Z,99893.52
2024-04-19T07:05:44.429Z,99890.47
2024-04-19T07:08:15.700Z,99882.88
2024-04-19T07:10:46.915Z,99882.59
2024-04-19T07:13:17.994Z,99876.50
2024-04-19T07:15:49.187Z,99879.59
2024-04-19T07:18:23.469Z,99879.77
2024-04-19T07:20:55.383Z,99875.98
2024-04-19T07:23:26.699Z,99870.07
2024-04-19T07:25:57.832Z,99864.16
2024-04-19T07:28:28.934Z,99864.08
2024-04-19T07:31:01.319Z,99863.59
2024-04-19T07:33:32.409Z,99861.84
2024-04-19T07:36:03.606Z,99854.62
2024-04-19T07:38:36.392Z,99849.86
2024-04-19T07:41:07.731Z,99849.82
2024-04-19T07:43:45.864Z,99840.45
2024-04-19T07:46:21.176Z,99840.15
2024-04-19T07:48:52.450Z,99836.80
2024-04-19T07:51:23.971Z,99835.17
2024-04-19T07:53:55.152Z,99835.41
2024-04-19T07:56:26.545Z,99833.61
2024-04-19T07:58:57.705Z,99838.34
2024-04-19T08:01:29.007Z,99830.79
2024-04-19T08:04:00.942Z,99828.39
2024-04-19T08:06:34.106Z,99828.08
2024-04-19T08:09:05.349Z,99822.81
2024-04-19T08:11:36.609Z,99815.86
2024-04-19T08:14:07.720Z,99815.80
2024-04-19T08:16:38.871Z,99812.61
2024-04-19T08:19:11.208Z,99805.32
2024-04-19T08:21:42.444Z,99795.09
2024-04-19T08:24:13.643Z,99797.96
2024-04-19T08:26:44.764Z,99800.05
2024-04-19T08:29:22.299Z,99792.16
2024-04-19T08:31:59.711Z,99793.27
2024-04-19T08:34:30.854Z,99793.04
2024-04-19T08:37:02.744Z,99791.38
2024-04-19T08:39:33.943Z,99788.49
2024-04-19T08:42:10.542Z,99788.01
2024-04-19T08:44:45.692Z,99787.16
2024-04-19T08:47:18.593Z,99778.70
2024-04-19T08:49:51.462Z,99768.31
2024-04-19T08:52:48.745Z,99766.35
2024-04-19T08:55:15.870Z,99761.61
2024-04-19T08:57:48.161Z,99760.67
2024-04-19T09:00:22.494Z,99762.65
2024-04-19T09:02:54.286Z,99753.70
2024-04-19T09:05:25.502Z,99755.13
2024-04-19T09:07:56.915Z,99751.31
2024-04-19T09:10:28.505Z,99746.45
2024-04-19T09:12:59.890Z,99745.52
2024-04-19T09:15:32.569Z,99741.59
2024-04-19T09:18:05.125Z,99731.48
2024-04-19T09:20:36.394Z,99719.64
2024-04-19T09:23:07.881Z,99728.89
2024-04-19T09:25:39.687Z,99734.54
2024-04-19T09:28:14.000Z,99732.17
2024-04-19T09:30:45.939Z,99739.84
2024-04-19T09:33:20.035Z,99731.71
2024-04-19T09:35:53.771Z,99731.36
2024-04-19T09:38:25.084Z,99726.70
2024-04-19T09:40:56.244Z,99725.64
2024-04-19T09:43:30.144Z,99726.82
2024-04-19T09:46:02.557Z,99721.94
2024-04-19T09:48:41.239Z,99711.14
2024-04-19T09:51:16.766Z,99694.81
2024-04-19T09:53:51.058Z,99700.34
2024-04-19T09:56:32.752Z,99705.30
2024-04-19T09:59:06.083Z,99699.67
2024-04-19T10:01:39.283Z,99690.35
2024-04-19T10:04:11.294Z,99688.83
2024-04-19T10:06:45.296Z,99683.45
2024-04-19T10:09:19.718Z,99665.80
2024-04-19T10:11:53.476Z,99660.69
2024-04-19T10:14:25.276Z,99651.44
2024-04-19T10:16:57.485Z,99640.69
2024-04-19T10:19:39.594Z,99640.56
2024-04-19T10:22:23.130Z,99633.92
2024-04-19T10:25:01.350Z,99628.23
2024-04-19T10:27:34.305Z,99625.75
2024-04-19T10:30:13.710Z,99627.85
2024-04-19T10:32:54.974Z,99628.45
2024-04-19T10:35:26.370Z,99627.68
2024-04-19T10:37:59.642Z,99628.21
2024-04-19T10:40:30.963Z,99630.69
2024-04-19T10:43:06.208Z,99628.99
2024-04-19T10:45:38.036Z,99616.38
2024-04-19T10:48:11.020Z,99614.05
2024-04-19T10:50:44.917Z,99606.44
2024-04-19T10:53:17.965Z,99602.95
2024-04-19T10:55:49.935Z,99613.08
2024-04-19T10:58:21.043Z,99607.91
2024-04-19T11:00:52.390Z,99605.61
2024-04-19T11:03:24.028Z,99598.78
2024-04-19T11:05:56.302Z,99591.32
2024-04-19T11:08:27.722Z,99577.56
2024-04-19T11:10:59.068Z,99571.45
2024-04-19T11:13:30.262Z,99569.78
2024-04-19T11:16:01.554Z,99562.33
2024-04-19T11:18:32.834Z,99559.09
2024-04-19T11:21:08.608Z,99559.73
2024-04-19T11:23:43.842Z,99553.58
2024-04-19T11:26:18.648Z,99554.23
2024-04-19T11:28:48.887Z,99552.00
2024-04-19T11:31:21.312Z,99552.66
2024-04-19T11:33:56.323Z,99549.59
2024-04-19T11:36:27.664Z,99552.66
2024-04-19T11:38:59.183Z,99546.21
2024-04-19T11:41:30.970Z,99546.02
2024-04-19T11:44:03.840Z,99543.59
2024-04-19T11:46:35.028Z,99536.17
2024-04-19T11:49:07.317Z,99542.80
2024-04-19T11:51:38.485Z,99547.02
2024-04-19T11:54:09.949Z,99549.83
2024-04-19T11:56:41.142Z,99536.04
2024-04-19T11:59:20.046Z,99522.75
2024-04-19T12:01:52.332Z,99522.66
2024-04-19T12:04:23.701Z,99520.80
2024-04-19T12:06:55.139Z,99516.61
2024-04-19T12:09:27.147Z,99504.00
2024-04-19T12:15:22.519Z,99490.42
2024-04-19T12:17:29.584Z,99481.08
2024-04-19T12:20:08.098Z,99472.88
2024-04-19T12:22:54.676Z,99476.61
2024-04-19T12:25:31.144Z,99466.76
2024-04-19T12:28:02.912Z,99466.75
2024-04-19T12:30:34.941Z,99462.76
2024-04-19T12:33:06.550Z,99460.92
2024-04-19T12:35:37.731Z,99458.38
2024-04-19T12:38:09.004Z,99456.06
2024-04-19T12:40:42.802Z,99454.09
2024-04-19T12:43:14.889Z,99450.77
2024-04-19T12:45:50.804Z,99445.59
2024-04-19T12:48:22.546Z,99441.84
2024-04-19T12:50:54.039Z,99437.55
2024-04-19T12:53:25.368Z,99438.66
2024-04-19T12:55:56.805Z,99434.83
2024-04-19T12:58:31.074Z,99428.04
2024-04-19T13:01:04.879Z,99432.48
2024-04-19T13:03:36.552Z,99427.41
2024-04-19T13:06:08.135Z,99433.83
2024-04-19T13:08:39.822Z,99440.05
2024-04-19T13:11:11.138Z,99435.01
2024-04-19T13:13:54.629Z,99423.00
2024-04-19T13:16:27.456Z,99419.67
2024-04-19T13:18:58.916Z,99413.99
2024-04-19T13:21:30.555Z,99413.39
2024-04-19T13:24:02.147Z,99409.48
2024-04-19T13:26:34.027Z,99403.30
2024-04-19T13:29:05.975Z,99399.27
2024-04-19T13:31:37.614Z,99394.70
2024-04-19T13:34:09.170Z,99391.82
2024-04-19T13:36:41.626Z,99388.77
2024-04-19T13:39:13.296Z,99389.16
2024-04-19T13:41:46.169Z,99384.80
2024-04-19T13:44:20.368Z,99379.95
2024-04-19T13:46:52.032Z,99377.97
2024-04-19T13:49:23.380Z,99379.88
2024-04-19T13:51:54.849Z,99373.77
2024-04-19T13:54:26.743Z,99369.29
2024-04-19T13:56:58.369Z,99363.60
2024-04-19T13:59:30.296Z,99359.79
2024-04-19T14:02:01.837Z,99353.98
2024-04-19T14:04:36.623Z,99350.98
2024-04-19T14:07:06.887Z,99339.95
2024-04-19T14:09:39.712Z,99335.75
2024-04-19T14:12:11.541Z,99339.48
2024-04-19T14:14:42.902Z,99337.10
2024-04-19T14:17:14.101Z,99336.07
2024-04-19T14:19:47.765Z,99329.88
2024-04-19T14:22:19.105Z,99327.02
2024-04-19T14:24:51.285Z,99322.98
2024-04-19T14:27:23.394Z,99322.34
2024-04-19T14:29:56.087Z,99321.46
2024-04-19T14:32:27.472Z,99317.73
2024-04-19T14:34:58.661Z,99313.52
2024-04-19T14:37:30.559Z,99308.98
2024-04-19T14:40:01.926Z,99304.54
2024-04-19T14:42:33.393Z,99305.80
2024-04-19T14:45:05.581Z,99298.98
2024-04-19T14:47:37.782Z,99295.40
2024-04-19T14:50:09.591Z,99293.59
2024-04-19T14:52:50.561Z,99286.59
2024-04-19T14:55:27.358Z,99278.73
2024-04-19T14:57:58.964Z,99278.00
2024-04-19T15:00:30.327Z,99273.79
2024-04-19T15:03:01.655Z,99271.81
2024-04-19T15:05:33.020Z,99260.20
2024-04-19T15:08:08.398Z,99254.56
2024-04-19T15:10:40.580Z,99248.69
2024-04-19T15:13:11.876Z,99242.23
2024-04-19T15:15:44.474Z,99246.37
2024-04-19T15:18:15.708Z,99265.05
2024-04-19T15:20:46.839Z,99278.26
2024-04-19T15:23:17.986Z,99272.54
2024-04-19T15:25:49.531Z,99273.71
2024-04-19T15:28:21.679Z,99263.95
2024-04-19T15:30:53.358Z,99265.77
2024-04-19T15:33:24.864Z,99262.81
2024-04-19T15:35:56.184Z,99266.30
2024-04-19T15:38:27.388Z,99262.67
2024-04-19T15:40:58.613Z,99264.95
2024-04-19T15:43:29.849Z,99259.91
2024-04-19T15:46:01.031Z,99255.30
2024-04-19T15:48:32.341Z,99251.03
2024-04-19T15:51:06.472Z,99252.42
2024-04-19T15:53:38.439Z,99249.33
2024-04-19T15:56:10.851Z,99252.05
2024-04-19T15:58:42.286Z,99249.48
2024-04-19T16:01:13.754Z,99247.60
2024-04-19T16:03:45.028Z,99245.46
2024-04-19T16:06:16.237Z,99242.30
2024-04-19T16:08:49.493Z,99243.25
2024-04-19T16:11:21.400Z,99238.81
2024-04-19T16:13:52.735Z,99235.63
2024-04-19T16:16:23.916Z,99233.56
2024-04-19T16:18:55.684Z,99216.71
2024-04-19T16:21:27.399Z,99226.56
2024-04-19T16:23:58.811Z,99231.14
2024-04-19T16:26:30.042Z,99231.92
2024-04-19T16:29:01.607Z,99232.05
2024-04-19T16:31:33.886Z,99230.40
2024-04-19T16:34:05.684Z,99234.16
2024-04-19T16:36:37.238Z,99230.98
2024-04-19T16:39:08.615Z,99231.02
2024-04-19T16:41:40.516Z,99226.96
2024-04-19T16:44:11.737Z,99226.96
2024-04-19T16:46:43.417Z,99223.04
2024-04-19T16:49:14.650Z,99222.52
2024-04-19T16:51:46.402Z,99226.45
2024-04-19T16:54:17.853Z,99222.88
2024-04-19T16:56:49.089Z,99220.64
2024-04-19T16:59:21.027Z,99224.47
2024-04-19T17:01:53.233Z,99221.48
2024-04-19T17:04:24.582Z,99219.33
2024-04-19T17:06:58.423Z,99218.26
2024-04-19T17:09:30.027Z,99218.15
2024-04-19T17:12:03.840Z,99208.46
2024-04-19T17:14:35.562Z,99216.64
2024-04-19T17:17:07.315Z,99216.14
2024-04-19T17:19:39.589Z,99219.55
2024-04-19T17:22:11.438Z,99218.14
2024-04-19T17:24:43.376Z,99219.55
2024-04-19T17:27:17.394Z,99219.66
2024-04-19T17:29:49.504Z,99221.73
2024-04-19T17:32:20.855Z,99222.95
2024-04-19T17:34:52.507Z,99223.91
2024-04-19T17:37:24.787Z,99224.11
2024-04-19T17:39:56.509Z,99224.67
2024-04-19T17:42:28.286Z,99197.98
2024-04-19T17:44:59.602Z,99220.69
2024-04-19T17:47:31.859Z,99220.67
2024-04-19T17:50:04.897Z,99222.77
2024-04-19T17:52:36.099Z,99226.79
2024-04-19T17:55:08.550Z,99226.22
2024-04-19T17:57:39.831Z,99227.56
2024-04-19T18:00:12.747Z,99230.77
2024-04-19T18:02:44.117Z,99231.60
2024-04-19T18:05:15.605Z,99228.27
2024-04-19T18:07:46.739Z,99229.24
2024-04-19T18:10:22.691Z,99228.80
2024-04-19T18:12:54.199Z,99232.05
2024-04-19T18:15:25.675Z,99233.08
2024-04-19T18:18:03.253Z,99234.05
2024-04-19T18:20:34.810Z,99236.00
2024-04-19T18:23:06.202Z,99233.55
2024-04-19T18:25:37.824Z,99237.19
2024-04-19T18:28:10.220Z,99236.16
2024-04-19T18:30:42.327Z,99235.36
2024-04-19T18:33:13.801Z,99238.29
2024-04-19T18:35:46.249Z,99240.63
2024-04-19T18:38:17.674Z,99240.40
2024-04-19T18:40:50.608Z,99242.73
2024-04-19T18:43:21.765Z,99243.38
2024-04-19T18:45:53.082Z,99240.88
2024-04-19T18:48:24.563Z,99244.66
2024-04-19T18:50:56.344Z,99243.41
2024-04-19T18:53:28.809Z,99246.25
2024-04-19T18:56:00.245Z,99245.73
2024-04-19T18:58:31.932Z,99250.52
2024-04-19T19:01:11.027Z,99249.48
2024-04-19T19:03:43.722Z,99246.67
2024-04-19T19:06:17.177Z,99250.48
2024-04-19T19:08:48.636Z,99246.31
2024-04-19T19:11:20.414Z,99242.20
2024-04-19T19:13:52.705Z,99243.86
2024-04-19T19:16:24.130Z,99241.69
2024-04-19T19:18:55.511Z,99241.11
2024-04-19T19:21:29.886Z,99241.96
2024-04-19T19:24:02.712Z,99242.30
2024-04-19T19:26:35.547Z,99244.54
2024-04-19T19:29:13.056Z,99246.38
2024-04-19T19:31:44.471Z,99246.42
2024-04-19T19:34:15.851Z,99241.95
2024-04-19T19:36:49.409Z,99237.81
2024-04-19T19:39:20.661Z,99238.08
2024-04-19T19:41:52.268Z,99226.15
2024-04-19T19:44:23.698Z,99238.81
2024-04-19T19:46:57.047Z,99239.69
2024-04-19T19:49:28.709Z,99235.81
2024-04-19T19:52:04.576Z,99233.60
2024-04-19T19:55:27.240Z,99236.80
2024-04-19T19:57:59.276Z,99238.37
2024-04-19T20:00:49.573Z,99238.73
2024-04-19T20:03:38.695Z,99239.02
2024-04-19T20:06:10.315Z,99237.52
2024-04-19T20:08:42.400Z,99239.76
2024-04-19T20:11:13.780Z,99239.34
2024-04-19T20:13:44.984Z,99243.25
2024-04-19T20:16:17.424Z,99243.60
2024-04-19T20:18:49.060Z,99244.40
2024-04-19T20:21:20.486Z,99244.70
2024-04-19T20:23:52.472Z,99239.17
2024-04-19T20:26:23.811Z,99235.30
2024-04-19T20:28:55.559Z,99235.42
2024-04-19T20:31:27.721Z,99235.11
2024-04-19T20:33:59.316Z,99236.63
2024-04-19T20:36:31.412Z,99237.94
2024-04-19T20:39:02.619Z,99239.67
2024-04-19T20:41:34.033Z,99237.27
2024-04-19T20:44:05.383Z,99237.20
2024-04-19T20:46:36.486Z,99237.89
2024-04-19T20:49:07.751Z,99241.34
2024-04-19T20:51:38.951Z,99242.40
2024-04-19T20:54:10.113Z,99243.36
2024-04-19T20:56:41.555Z,99245.64
2024-04-19T20:59:13.359Z,99244.24
2024-04-19T21:01:44.686Z,99244.55
2024-04-19T21:04:15.899Z,99250.45
2024-04-19T21:06:47.149Z,99250.39
2024-04-19T21:09:18.727Z,99249.30
2024-04-19T21:11:49.904Z,99246.46
2024-04-19T21:14:22.174Z,99249.40
2024-04-19T21:16:53.352Z,99247.12
2024-04-19T21:19:24.750Z,99253.79
2024-04-19T21:21:55.929Z,99253.94
2024-04-19T21:24:27.759Z,99251.81
2024-04-19T21:26:58.981Z,99247.77
2024-04-19T21:29:30.144Z,99250.40
2024-04-19T21:32:01.339Z,99249.61
2024-04-19T21:34:33.047Z,99253.15
2024-04-19T21:37:04.453Z,99256.38
2024-04-19T21:39:35.724Z,99258.48
2024-04-19T21:42:07.527Z,99252.63
2024-04-19T21:44:38.723Z,99254.79
2024-04-19T21:47:09.988Z,99255.58
2024-04-19T21:49:41.495Z,99252.66
2024-04-19T21:52:12.710Z,99254.89
2024-04-19T21:54:44.432Z,99257.34
2024-04-19T21:57:15.518Z,99253.36
2024-04-19T21:59:46.733Z,99250.36
2024-04-19T22:02:17.848Z,99256.47
2024-04-19T22:04:50.948Z,99250.77
2024-04-19T22:07:22.494Z,99251.56
2024-04-19T22:09:56.342Z,99250.70
2024-04-19T22:12:27.526Z,99249.13
2024-04-19T22:14:58.794Z,99249.27
2024-04-19T22:17:30.761Z,99253.71
2024-04-19T22:20:02.129Z,99250.93
2024-04-19T22:22:35.067Z,99252.77
2024-04-19T22:25:07.001Z,99249.11
2024-04-19T22:27:38.426Z,99252.68
2024-04-19T22:30:11.658Z,99258.17
2024-04-19T22:32:42.847Z,99259.52
2024-04-19T22:35:14.135Z,99256.48
2024-04-19T22:37:45.609Z,99259.35
2024-04-19T22:40:17.207Z,99258.41
2024-04-19T22:42:48.352Z,99246.04
2024-04-19T22:45:19.551Z,99260.04
2024-04-19T22:47:50.868Z,99261.87
2024-04-19T22:50:22.117Z,99262.09
2024-04-19T22:52:53.198Z,99263.68
2024-04-19T22:55:24.495Z,99268.66
2024-04-19T22:57:58.495Z,99263.66
2024-04-19T23:00:29.767Z,99269.99
2024-04-19T23:03:01.051Z,99271.26
2024-04-19T23:05:32.529Z,99270.47
2024-04-19T23:08:03.872Z,99271.09
2024-04-19T23:10:35.119Z,99264.92
2024-04-19T23:13:07.035Z,99265.14
2024-04-19T23:15:38.292Z,99264.67
2024-04-19T23:18:09.620Z,99262.14
2024-04-19T23:20:40.767Z,99265.08
2024-04-19T23:23:11.925Z,99262.15
2024-04-19T23:25:43.005Z,99259.85
2024-04-19T23:28:14.305Z,99264.13
2024-04-19T23:30:46.103Z,99268.79
2024-04-19T23:33:17.293Z,99269.91
2024-04-19T23:35:48.969Z,99266.45
2024-04-19T23:38:20.156Z,99267.88
2024-04-19T23:40:52.239Z,99265.33
2024-04-19T23:43:23.450Z,99258.59
2024-04-19T23:45:54.591Z,99265.88
2024-04-19T23:48:25.921Z,99269.32
2024-04-19T23:50:57.121Z,99275.23
2024-04-19T23:53:28.335Z,99275.36
2024-04-19T23:55:59.477Z,99274.09
2024-04-19T23:58:31.035Z,99273.88
